Fredonia, Kentucky
Current Conditions -  °F | °C
As of 8:55 AM on Tuesday 21 Oct 2014 (Local Time) from K5M9 Reporting Station
Clear Clear  
Wind Chill: 56°   Ceiling: Unl
Heat Index: 56°   Visibility: 10mi
Dew Point: 47°   Wind: 5mph
Humidity: 72%   Direction: 330°NNW
Pressure: 30.08"   Gusts: NA
Location:  37.21°N, 88.06°W
Report Text: K5M9 211355Z AUTO 33004KT 10SM CLR 13/08 A3008 RMK AO2 T01310081
Loading
Personal Weather Stations






























Interactive Weather Map
Tropical Storm Tracking
New forecast layout! Learn more

10-Day Weather Forecast

Advertisements
Track Severe Weather on mobile